createdAt,value
2023-09-06T00:00:42.921Z,15.3
2023-09-06T00:06:37.291Z,15
2023-09-06T00:12:29.522Z,14.9
2023-09-06T00:18:22.185Z,14.8
2023-09-06T00:24:14.717Z,14.9
2023-09-06T00:30:06.886Z,14.8
2023-09-06T00:35:59.405Z,14.8
2023-09-06T00:41:52.414Z,14.6
2023-09-06T00:47:44.455Z,15.3
2023-09-06T00:53:36.240Z,15.2
2023-09-06T00:59:27.906Z,15.4
2023-09-06T01:05:21.676Z,15.2
2023-09-06T01:11:12.766Z,15
2023-09-06T01:17:05.296Z,15.3
2023-09-06T01:22:57.808Z,15.6
2023-09-06T01:28:49.961Z,15.7
2023-09-06T01:34:44.002Z,15.8
2023-09-06T01:40:35.617Z,15.9
2023-09-06T01:46:27.686Z,15.9
2023-09-06T01:52:20.275Z,15.9
2023-09-06T01:58:12.058Z,15.9
2023-09-06T02:03:33.837Z,15.8
2023-09-06T02:09:26.484Z,15.9
2023-09-06T02:15:18.227Z,15.8
2023-09-06T02:20:55.760Z,15.9
2023-09-06T02:26:47.637Z,16
2023-09-06T02:32:39.844Z,16.1
2023-09-06T02:38:30.949Z,16
2023-09-06T02:44:24.186Z,16
2023-09-06T02:50:16.402Z,15.9
2023-09-06T02:56:08.914Z,15.9
2023-09-06T03:02:01.819Z,15.8
2023-09-06T03:07:53.925Z,15.9
2023-09-06T03:13:46.127Z,15.7
2023-09-06T03:19:40.448Z,15.9
2023-09-06T03:25:31.841Z,15.9
2023-09-06T03:31:24.254Z,15.7
2023-09-06T03:37:17.012Z,15.8
2023-09-06T03:43:09.870Z,15.9
2023-09-06T03:49:03.399Z,15.9
2023-09-06T03:54:40.926Z,16.1
2023-09-06T04:00:32.650Z,16.1
2023-09-06T04:06:26.828Z,16.1
2023-09-06T04:12:21.829Z,16.1
2023-09-06T04:18:14.486Z,16.1
2023-09-06T04:24:05.807Z,16.1
2023-09-06T04:29:59.062Z,16.1
2023-09-06T04:35:51.205Z,16.3
2023-09-06T04:41:42.661Z,16.4
2023-09-06T04:47:36.827Z,16.3
2023-09-06T04:53:16.272Z,16.4
2023-09-06T04:59:08.537Z,16.6
2023-09-06T05:05:02.081Z,16.6
2023-09-06T05:10:54.100Z,16.6
2023-09-06T05:16:46.410Z,16.7
2023-09-06T05:22:39.143Z,16.8
2023-09-06T05:28:14.909Z,16.9
2023-09-06T05:33:51.318Z,17.2
2023-09-06T05:39:28.431Z,17.4
2023-09-06T05:45:22.184Z,17.5
2023-09-06T05:51:35.788Z,17.5
2023-09-06T05:57:30.244Z,17.9
2023-09-06T06:03:22.632Z,18
2023-09-06T06:09:13.855Z,18.3
2023-09-06T06:15:17.325Z,18.5
2023-09-06T06:21:17.503Z,18.8
2023-09-06T06:27:09.557Z,19.1
2023-09-06T06:33:05.304Z,19
2023-09-06T06:38:58.242Z,18.9
2023-09-06T06:44:49.885Z,19.4
2023-09-06T06:50:43.546Z,19.3
2023-09-06T06:56:39.682Z,19
2023-09-06T07:02:31.513Z,19.2
2023-09-06T07:08:24.277Z,19.8
2023-09-06T07:14:16.889Z,20.6
2023-09-06T07:20:13.996Z,20.3
2023-09-06T07:26:05.509Z,21.3
2023-09-06T07:31:57.382Z,20.4
2023-09-06T07:37:51.108Z,20.6
2023-09-06T07:43:43.961Z,20.5
2023-09-06T07:49:38.017Z,20.7
2023-09-06T07:55:30.646Z,21.1
2023-09-06T08:01:36.081Z,21.4
2023-09-06T08:07:30.668Z,21.6
2023-09-06T08:13:23.073Z,22.7
2023-09-06T08:19:03.585Z,22.9
2023-09-06T08:25:09.357Z,23.4
2023-09-06T08:31:03.316Z,23.8
2023-09-06T08:36:57.671Z,23.2
2023-09-06T08:42:49.817Z,23.4
2023-09-06T08:48:27.267Z,24.4
2023-09-06T08:54:06.448Z,24.6
2023-09-06T09:00:00.065Z,23.2
2023-09-06T09:06:09.983Z,23.8
2023-09-06T09:12:03.120Z,24.1
2023-09-06T09:18:13.468Z,23.9
2023-09-06T09:24:07.071Z,23.5
2023-09-06T09:30:01.060Z,23.6
2023-09-06T09:35:53.692Z,23.6
2023-09-06T09:41:59.240Z,23.8
2023-09-06T09:48:09.783Z,23.9
2023-09-06T09:54:13.031Z,24.4
2023-09-06T09:59:48.957Z,23.8
2023-09-06T10:05:52.788Z,23.4
2023-09-06T10:12:01.481Z,23.9
2023-09-06T10:17:56.674Z,23.8
2023-09-06T10:24:05.734Z,23.9
2023-09-06T10:30:18.314Z,23.8
2023-09-06T10:36:10.132Z,23.4
2023-09-06T10:42:02.022Z,23.5
2023-09-06T10:47:54.619Z,23.6
2023-09-06T10:53:51.211Z,23.8
2023-09-06T10:59:28.437Z,24
2023-09-06T11:05:20.357Z,24
2023-09-06T11:11:31.822Z,23.8
2023-09-06T11:17:24.311Z,23.7
2023-09-06T11:23:17.462Z,23.4
2023-09-06T11:28:54.645Z,23.1
2023-09-06T11:34:48.016Z,22.8
2023-09-06T11:40:39.359Z,23.4
2023-09-06T11:46:31.346Z,23.8
2023-09-06T11:52:24.687Z,24.4
2023-09-06T11:58:33.720Z,24.3
2023-09-06T12:04:26.719Z,23.8
2023-09-06T12:10:35.419Z,23.4
2023-09-06T12:16:28.139Z,23
2023-09-06T12:22:08.413Z,22.8
2023-09-06T12:27:45.107Z,22.9
2023-09-06T12:33:34.128Z,23.3
2023-09-06T12:39:27.550Z,23.1
2023-09-06T12:45:22.369Z,23.2
2023-09-06T12:51:15.080Z,23.2
2023-09-06T12:57:10.521Z,23.4
2023-09-06T13:03:03.324Z,23.4
2023-09-06T13:08:56.216Z,23.1
2023-09-06T13:14:51.487Z,23
2023-09-06T13:20:30.203Z,23
2023-09-06T13:26:22.367Z,22.9
2023-09-06T13:32:14.440Z,22.8
2023-09-06T13:38:08.557Z,22.5
2023-09-06T13:44:02.590Z,22.5
2023-09-06T13:49:56.287Z,22.4
2023-09-06T13:55:48.952Z,22.5
2023-09-06T14:01:25.698Z,22.6
2023-09-06T14:07:19.137Z,22.6
2023-09-06T14:13:11.241Z,22.4
2023-09-06T14:19:03.785Z,22.3
2023-09-06T14:24:40.486Z,22.2
2023-09-06T14:30:34.235Z,22.2
2023-09-06T14:36:26.886Z,22.2
2023-09-06T14:42:03.737Z,22.3
2023-09-06T14:47:56.679Z,22.5
2023-09-06T14:53:48.456Z,22.6
2023-09-06T14:59:44.820Z,22.8
2023-09-06T15:05:25.687Z,22.8
2023-09-06T15:11:38.746Z,22.7
2023-09-06T15:17:14.183Z,22.6
2023-09-06T15:23:19.525Z,22.5
2023-09-06T15:29:10.706Z,22.5
2023-09-06T15:35:02.470Z,23
2023-09-06T15:40:54.078Z,23.2
2023-09-06T15:46:45.421Z,24.1
2023-09-06T15:52:37.743Z,23.9
2023-09-06T15:58:29.994Z,23.8
2023-09-06T16:04:41.547Z,23.6
2023-09-06T16:10:34.527Z,23.3
2023-09-06T16:16:29.887Z,22.9
2023-09-06T16:22:24.261Z,22.6
2023-09-06T16:28:15.423Z,22
2023-09-06T16:34:09.797Z,21.6
2023-09-06T16:40:03.323Z,21.4
2023-09-06T16:45:54.635Z,21.3
2023-09-06T16:51:49.297Z,21.1
2023-09-06T16:57:41.308Z,21
2023-09-06T17:03:34.555Z,20.9
2023-09-06T17:09:26.682Z,20.9
2023-09-06T17:15:17.665Z,20.8
2023-09-06T17:21:11.645Z,20.8
2023-09-06T17:27:14.427Z,20.8
2023-09-06T17:33:05.601Z,20.7
2023-09-06T17:38:41.316Z,20.9
2023-09-06T17:44:32.981Z,20.8
2023-09-06T17:50:26.022Z,20.9
2023-09-06T17:56:18.278Z,21
2023-09-06T18:02:13.781Z,21
2023-09-06T18:08:09.690Z,21
2023-09-06T18:14:01.206Z,21
2023-09-06T18:19:53.964Z,21.1
2023-09-06T18:25:48.266Z,21
2023-09-06T18:31:39.208Z,21.1
2023-09-06T18:37:15.879Z,21
2023-09-06T18:43:07.128Z,20.9
2023-09-06T18:48:45.259Z,20.9
2023-09-06T18:54:37.351Z,20.8
2023-09-06T19:00:41.060Z,20.9
2023-09-06T19:06:35.373Z,20.9
2023-09-06T19:12:28.145Z,20.9
2023-09-06T19:18:21.779Z,20.9
2023-09-06T19:24:12.761Z,20.8
2023-09-06T19:30:06.115Z,20.8
2023-09-06T19:36:02.791Z,20.8
2023-09-06T19:41:54.157Z,20.9
2023-09-06T19:47:31.572Z,20.9
2023-09-06T19:53:40.978Z,20.9
2023-09-06T19:59:31.773Z,20.8
2023-09-06T20:05:27.168Z,20.7
2023-09-06T20:11:03.981Z,20.7
2023-09-06T20:16:41.927Z,20.7
2023-09-06T20:22:33.951Z,20.8
2023-09-06T20:28:25.382Z,20.8
2023-09-06T20:34:17.395Z,20.7
2023-09-06T20:40:09.968Z,20.6
2023-09-06T20:46:01.619Z,20.4
2023-09-06T20:51:54.174Z,20.3
2023-09-06T20:57:45.848Z,20.4
2023-09-06T21:03:41.066Z,20.4
2023-09-06T21:09:17.094Z,20.3
2023-09-06T21:14:53.610Z,20.4
2023-09-06T21:20:32.168Z,20.4
2023-09-06T21:26:23.236Z,20.1
2023-09-06T21:32:25.914Z,20.1
2023-09-06T21:38:18.015Z,20.2
2023-09-06T21:44:23.344Z,20.3
2023-09-06T21:50:16.908Z,20.2
2023-09-06T21:56:08.358Z,20.1
2023-09-06T22:02:15.638Z,20.1
2023-09-06T22:08:09.292Z,20
2023-09-06T22:14:00.821Z,20.1
2023-09-06T22:19:52.563Z,20
2023-09-06T22:25:44.743Z,20
2023-09-06T22:31:37.307Z,20
2023-09-06T22:37:28.988Z,20
2023-09-06T22:43:06.257Z,19.9
2023-09-06T22:49:13.449Z,19.9
2023-09-06T22:55:05.599Z,19.8
2023-09-06T23:00:58.500Z,19.8
2023-09-06T23:06:54.019Z,19.9
2023-09-06T23:12:30.729Z,19.8
2023-09-06T23:18:08.358Z,19.9
2023-09-06T23:24:00.815Z,19.9
2023-09-06T23:29:37.492Z,19.9
2023-09-06T23:35:30.907Z,19.9
2023-09-06T23:41:23.890Z,19.9
2023-09-06T23:47:00.173Z,19.9
2023-09-06T23:52:37.719Z,19.9
2023-09-06T23:58:26.552Z,19.8
